Time;durP1;ratioP1;P1;durP2;ratioP2;P2;SDS_P1;SDS_P2;PMS_P1;PMS_P2;Temp;Humidity;BMP_temperature;BMP_pressure;BME280_temperature;BME280_humidity;BME280_pressure;Samples;Min_cycle;Max_cycle;Signal;HPM_P1;HPM_P2
2023/08/07 00:02:06;;;;;;;8.65;5.28;;;15.90;99.90;;;;;;6279931;22;20020;-62
2023/08/07 00:04:32;;;;;;;7.00;4.80;;;15.90;99.90;;;;;;6281614;22;20027;-62
2023/08/07 00:06:58;;;;;;;8.57;4.70;;;15.90;99.90;;;;;;6279729;22;20027;-62
2023/08/07 00:09:24;;;;;;;6.50;5.10;;;15.90;99.90;;;;;;6281545;22;20053;-62
2023/08/07 00:11:49;;;;;;;8.20;4.80;;;15.90;99.90;;;;;;6280274;22;20049;-62
2023/08/07 00:14:15;;;;;;;6.18;4.80;;;15.90;99.90;;;;;;6280361;22;20027;-62
2023/08/07 00:16:41;;;;;;;6.30;4.70;;;15.90;99.90;;;;;;6280775;22;20027;-62
2023/08/07 00:19:07;;;;;;;6.63;4.85;;;15.90;99.90;;;;;;6279501;22;20023;-62
2023/08/07 00:21:35;;;;;;;6.75;4.38;;;15.90;99.90;;;;;;6281170;22;20074;-62
2023/08/07 00:24:04;;;;;;;5.85;4.55;;;15.90;99.90;;;;;;6279676;22;20487;-62
2023/08/07 00:26:32;;;;;;;11.52;5.03;;;15.90;99.90;;;;;;6280911;22;20024;-62
2023/08/07 00:28:57;;;;;;;6.93;4.60;;;15.90;99.90;;;;;;6280139;22;20055;-62
2023/08/07 00:31:23;;;;;;;6.68;4.72;;;15.90;99.90;;;;;;6280114;22;20546;-62
2023/08/07 00:33:51;;;;;;;6.07;4.13;;;15.90;99.90;;;;;;6253289;22;20409;-62
2023/08/07 00:36:17;;;;;;;7.63;4.20;;;15.90;99.90;;;;;;6279578;22;20138;-62
2023/08/07 00:38:43;;;;;;;8.43;4.20;;;15.90;99.90;;;;;;6253575;22;20103;-62
2023/08/07 00:41:09;;;;;;;5.47;4.20;;;15.90;99.90;;;;;;6279325;22;20498;-62
2023/08/07 00:43:35;;;;;;;5.90;4.30;;;15.80;99.90;;;;;;6281002;22;20081;-62
2023/08/07 00:46:02;;;;;;;6.05;4.40;;;15.80;99.90;;;;;;6279558;22;20023;-62
2023/08/07 00:48:29;;;;;;;6.50;4.25;;;15.90;99.90;;;;;;6252741;22;20023;-62
2023/08/07 00:50:56;;;;;;;5.05;3.83;;;15.80;99.90;;;;;;6280478;22;20470;-62
2023/08/07 00:53:22;;;;;;;7.47;4.55;;;15.80;99.90;;;;;;6252418;22;20026;-62
2023/08/07 00:55:48;;;;;;;7.53;3.80;;;15.80;99.90;;;;;;6280712;22;20062;-62
2023/08/07 00:58:14;;;;;;;5.38;3.72;;;15.90;99.90;;;;;;6279408;22;20027;-62
2023/08/07 01:00:43;;;;;;;5.35;3.10;;;15.80;99.90;;;;;;6280973;22;20083;-62
2023/08/07 01:03:10;;;;;;;6.18;3.83;;;15.80;99.90;;;;;;6227018;22;20054;-61
2023/08/07 01:05:38;;;;;;;8.82;3.28;;;15.80;99.90;;;;;;6285007;22;20059;-61
2023/08/07 01:08:04;;;;;;;4.95;3.47;;;15.80;99.90;;;;;;6285318;22;20099;-62
2023/08/07 01:11:02;;;;;;;4.93;3.53;;;15.80;99.90;;;;;;6282829;22;20350;-62
2023/08/07 01:13:50;;;;;;;5.20;3.53;;;15.80;99.90;;;;;;6280774;22;20030;-62
2023/08/07 01:16:28;;;;;;;4.10;3.45;;;15.80;99.90;;;;;;6279782;22;20467;-62
2023/08/07 01:18:55;;;;;;;7.18;3.72;;;15.80;99.90;;;;;;6252182;22;20529;-62
2023/08/07 01:21:21;;;;;;;5.97;3.42;;;15.80;99.90;;;;;;6280806;22;20059;-62
2023/08/07 01:23:48;;;;;;;4.80;3.40;;;15.80;99.90;;;;;;6252158;22;20468;-62
2023/08/07 01:26:19;;;;;;;6.47;3.65;;;15.80;99.90;;;;;;6281001;22;20027;-62
2023/08/07 01:29:06;;;;;;;6.72;3.50;;;15.80;99.90;;;;;;6281124;22;20493;-62
2023/08/07 01:31:35;;;;;;;8.05;3.30;;;15.80;99.90;;;;;;6289223;22;20035;-62
2023/08/07 01:34:10;;;;;;;9.10;3.20;;;15.70;99.90;;;;;;6260682;22;20024;-62
2023/08/07 01:36:38;;;;;;;5.72;3.15;;;15.70;99.90;;;;;;6284432;22;20019;-62
2023/08/07 01:39:06;;;;;;;4.25;3.33;;;15.70;99.90;;;;;;6256540;22;20038;-62
2023/08/07 01:41:33;;;;;;;11.23;3.40;;;15.70;99.90;;;;;;6284285;22;20420;-62
2023/08/07 01:43:59;;;;;;;4.07;3.03;;;15.70;99.90;;;;;;6283705;22;20023;-62
2023/08/07 01:46:25;;;;;;;8.63;3.53;;;15.70;99.90;;;;;;6278529;22;20046;-62
2023/08/07 01:48:50;;;;;;;7.75;3.30;;;15.70;99.90;;;;;;6279064;22;20047;-62
2023/08/07 01:51:16;;;;;;;4.63;2.92;;;15.70;99.90;;;;;;6280171;22;20019;-62
2023/08/07 01:53:42;;;;;;;5.05;2.60;;;15.60;99.90;;;;;;6278658;22;20094;-62
2023/08/07 01:56:08;;;;;;;6.10;3.17;;;15.60;99.90;;;;;;6280317;22;20043;-62
2023/08/07 01:58:33;;;;;;;5.85;2.88;;;15.70;99.90;;;;;;6277965;22;20035;-62
2023/08/07 02:00:59;;;;;;;7.43;2.72;;;15.60;99.90;;;;;;6279921;22;20026;-62
2023/08/07 02:03:25;;;;;;;6.75;2.65;;;15.60;99.90;;;;;;6279027;22;20024;-62
2023/08/07 02:05:51;;;;;;;6.95;2.45;;;15.60;99.90;;;;;;6251163;22;20479;-62
2023/08/07 02:08:17;;;;;;;7.13;2.58;;;15.50;99.90;;;;;;6227133;22;20045;-62
2023/08/07 02:10:43;;;;;;;7.15;2.53;;;15.60;99.90;;;;;;6278576;22;20020;-62
2023/08/07 02:13:09;;;;;;;11.48;2.58;;;15.50;99.90;;;;;;6279922;22;20054;-62
2023/08/07 02:15:35;;;;;;;6.10;2.25;;;15.50;99.90;;;;;;6278336;22;20119;-62
2023/08/07 02:18:00;;;;;;;10.45;2.72;;;15.50;99.90;;;;;;6280025;22;20020;-62
2023/08/07 02:20:26;;;;;;;6.00;2.38;;;15.50;99.90;;;;;;6279018;22;20024;-62
2023/08/07 02:22:52;;;;;;;5.13;2.28;;;15.50;99.90;;;;;;6279163;22;20050;-62
2023/08/07 02:25:17;;;;;;;6.90;2.17;;;15.40;99.90;;;;;;6279332;22;20035;-62
2023/08/07 02:27:43;;;;;;;9.05;3.53;;;15.50;99.90;;;;;;6278169;22;20024;-62
2023/08/07 02:30:09;;;;;;;7.78;2.15;;;15.50;99.90;;;;;;6252592;22;20035;-62
2023/08/07 02:32:35;;;;;;;5.60;1.63;;;15.40;99.90;;;;;;6278118;22;20124;-62
2023/08/07 02:35:01;;;;;;;3.08;1.55;;;15.40;99.90;;;;;;6280255;22;20023;-62
2023/08/07 02:37:27;;;;;;;10.10;2.00;;;15.40;99.90;;;;;;6251432;22;20069;-62
2023/08/07 02:39:53;;;;;;;11.63;2.20;;;15.40;99.90;;;;;;6226563;22;20694;-62
2023/08/07 02:42:19;;;;;;;13.38;2.28;;;15.40;99.90;;;;;;6279229;22;20019;-62
2023/08/07 02:44:45;;;;;;;11.57;2.78;;;15.40;99.90;;;;;;6278401;22;20072;-61
2023/08/07 02:47:11;;;;;;;5.97;2.15;;;15.40;99.90;;;;;;6279860;22;20024;-62
2023/08/07 02:49:36;;;;;;;12.80;2.85;;;15.30;99.90;;;;;;6278295;22;20055;-61
2023/08/07 02:52:02;;;;;;;6.25;2.00;;;15.40;99.90;;;;;;6280183;22;20051;-62
2023/08/07 02:54:28;;;;;;;7.45;2.00;;;15.30;99.90;;;;;;6251350;22;20086;-62
2023/08/07 02:56:54;;;;;;;6.75;2.05;;;15.30;99.90;;;;;;6279338;22;20035;-62
2023/08/07 02:59:19;;;;;;;12.57;2.00;;;15.30;99.90;;;;;;6252512;22;20026;-62
2023/08/07 03:01:45;;;;;;;10.02;2.38;;;15.30;99.90;;;;;;6278681;22;20023;-61
2023/08/07 03:04:11;;;;;;;7.95;2.20;;;15.30;99.90;;;;;;6279818;22;20054;-61
2023/08/07 03:06:37;;;;;;;9.43;2.38;;;15.30;99.90;;;;;;6251200;22;20027;-62
2023/08/07 03:09:03;;;;;;;6.47;1.92;;;15.30;99.90;;;;;;6280313;22;20047;-62
2023/08/07 03:11:29;;;;;;;7.47;2.10;;;15.20;99.90;;;;;;6278053;22;20023;-62
2023/08/07 03:13:55;;;;;;;6.80;1.98;;;15.20;99.90;;;;;;6252289;22;20107;-62
2023/08/07 03:16:20;;;;;;;8.68;1.75;;;15.20;99.90;;;;;;6279220;22;20026;-62
2023/08/07 03:18:46;;;;;;;5.53;1.83;;;15.20;99.90;;;;;;6278445;22;20024;-62
2023/08/07 03:21:12;;;;;;;6.30;1.92;;;15.20;99.90;;;;;;6279853;22;20109;-62
2023/08/07 03:23:38;;;;;;;8.20;2.42;;;15.20;99.90;;;;;;6278275;22;20409;-62
2023/08/07 03:26:09;;;;;;;8.18;1.50;;;15.20;99.90;;;;;;6279362;22;20032;-61
2023/08/07 03:28:36;;;;;;;4.55;1.60;;;15.20;99.90;;;;;;6278105;22;20038;-62
2023/08/07 03:31:02;;;;;;;9.38;2.50;;;15.20;99.90;;;;;;6279682;22;20011;-62
2023/08/07 03:33:28;;;;;;;11.48;2.00;;;15.20;99.90;;;;;;6279229;22;20030;-62
2023/08/07 03:35:54;;;;;;;12.48;2.13;;;15.20;99.90;;;;;;6278784;22;20023;-62
2023/08/07 03:38:20;;;;;;;7.35;1.50;;;15.20;99.90;;;;;;6254471;22;20023;-62
2023/08/07 03:40:46;;;;;;;10.98;2.15;;;15.10;99.90;;;;;;6279753;22;20023;-62
2023/08/07 03:43:11;;;;;;;11.18;2.47;;;15.20;99.90;;;;;;6281918;22;20020;-62
2023/08/07 03:45:39;;;;;;;7.72;1.83;;;15.10;99.90;;;;;;6252497;22;20024;-62
2023/08/07 03:48:04;;;;;;;9.95;1.90;;;15.10;99.90;;;;;;6282036;22;20020;-62
2023/08/07 03:50:30;;;;;;;10.48;2.50;;;15.10;99.90;;;;;;6287494;22;20503;-62
2023/08/07 03:52:56;;;;;;;11.82;1.67;;;15.10;99.90;;;;;;6287168;22;20047;-62
2023/08/07 03:55:22;;;;;;;10.45;2.30;;;15.10;99.90;;;;;;6283713;22;20024;-62
2023/08/07 03:57:48;;;;;;;15.02;1.77;;;15.10;99.90;;;;;;6280542;22;20058;-62
2023/08/07 04:00:14;;;;;;;6.28;2.00;;;15.10;99.90;;;;;;6229419;22;20102;-62
2023/08/07 04:02:40;;;;;;;8.05;2.30;;;15.10;99.90;;;;;;6279964;22;20148;-62
2023/08/07 04:05:06;;;;;;;7.20;1.80;;;15.20;99.90;;;;;;6281848;22;20020;-62
2023/08/07 04:07:32;;;;;;;7.57;2.20;;;15.10;99.90;;;;;;6280942;22;20026;-62
2023/08/07 04:09:58;;;;;;;13.90;2.78;;;15.20;99.90;;;;;;6280707;22;20081;-62
2023/08/07 04:12:24;;;;;;;5.20;2.30;;;15.10;99.90;;;;;;6281710;22;20016;-62
2023/08/07 04:14:50;;;;;;;6.40;1.90;;;15.10;99.90;;;;;;6280647;22;20016;-62
2023/08/07 04:17:15;;;;;;;9.05;2.03;;;15.10;99.90;;;;;;6282773;22;20016;-62
2023/08/07 04:19:41;;;;;;;9.80;2.30;;;15.10;99.90;;;;;;6256842;22;20066;-62
2023/08/07 04:22:07;;;;;;;5.35;1.83;;;15.10;99.90;;;;;;6294912;22;20086;-62
2023/08/07 04:24:33;;;;;;;5.88;1.65;;;15.10;99.90;;;;;;6282298;22;20035;-62
2023/08/07 04:26:58;;;;;;;7.95;1.73;;;15.20;99.90;;;;;;6285846;22;20024;-63
2023/08/07 04:29:25;;;;;;;5.38;1.60;;;15.10;99.90;;;;;;6285201;22;20031;-62
2023/08/07 04:31:51;;;;;;;3.67;1.60;;;15.10;99.90;;;;;;6283198;22;20614;-62
2023/08/07 04:34:16;;;;;;;9.07;1.95;;;15.10;99.90;;;;;;6281396;22;20026;-62
2023/08/07 04:36:42;;;;;;;10.88;2.10;;;15.10;99.90;;;;;;6279779;22;20040;-62
2023/08/07 04:39:08;;;;;;;7.28;1.73;;;15.10;99.90;;;;;;6281050;22;20031;-62
2023/08/07 04:41:34;;;;;;;5.50;2.00;;;15.10;99.90;;;;;;6279621;22;20498;-62
2023/08/07 04:44:00;;;;;;;8.07;2.05;;;15.10;99.90;;;;;;6280501;22;20536;-61
2023/08/07 04:46:26;;;;;;;6.07;1.92;;;15.20;99.90;;;;;;6253021;22;20461;-61
2023/08/07 04:48:52;;;;;;;8.90;2.50;;;15.10;99.90;;;;;;6279686;22;20063;-61
2023/08/07 04:51:18;;;;;;;4.97;2.25;;;15.20;99.90;;;;;;6280911;22;20030;-60
2023/08/07 04:53:43;;;;;;;6.88;1.75;;;15.10;99.90;;;;;;6279787;22;20028;-61
2023/08/07 04:56:09;;;;;;;6.75;2.17;;;15.10;99.90;;;;;;6281336;22;20521;-60
2023/08/07 04:58:35;;;;;;;11.82;2.28;;;15.10;99.90;;;;;;6279770;22;20055;-62
2023/08/07 05:01:01;;;;;;;4.05;1.70;;;15.10;99.90;;;;;;6280776;22;20492;-61
2023/08/07 05:03:27;;;;;;;6.13;2.22;;;15.20;99.90;;;;;;6280353;22;20039;-62
2023/08/07 05:06:00;;;;;;;12.30;2.40;;;15.20;99.90;;;;;;6279280;22;20302;-62
2023/08/07 05:08:26;;;;;;;5.70;2.05;;;15.20;99.90;;;;;;6280693;22;20027;-62
2023/08/07 05:10:51;;;;;;;9.35;2.50;;;15.20;99.90;;;;;;6279369;22;20102;-62
2023/08/07 05:13:17;;;;;;;7.63;2.15;;;15.20;99.90;;;;;;6281221;22;20539;-62
2023/08/07 05:15:43;;;;;;;9.45;2.00;;;15.20;99.90;;;;;;6279980;22;20027;-62
2023/08/07 05:18:09;;;;;;;6.63;2.08;;;15.20;99.90;;;;;;6280984;22;20034;-61
2023/08/07 05:20:34;;;;;;;7.82;2.40;;;15.20;99.90;;;;;;6280461;22;20051;-62
2023/08/07 05:23:00;;;;;;;7.30;2.00;;;15.20;99.90;;;;;;6280112;22;20042;-62
2023/08/07 05:25:26;;;;;;;8.20;2.40;;;15.20;99.90;;;;;;6280518;22;20024;-62
2023/08/07 05:27:52;;;;;;;9.65;2.28;;;15.20;99.90;;;;;;6278862;22;20018;-62
2023/08/07 05:30:17;;;;;;;7.75;2.42;;;15.20;99.90;;;;;;6280861;22;20032;-62
2023/08/07 05:32:43;;;;;;;6.50;2.05;;;15.10;99.90;;;;;;6278869;22;20111;-62
2023/08/07 05:35:09;;;;;;;7.85;2.50;;;15.10;99.90;;;;;;6253156;22;20024;-62
2023/08/07 05:37:35;;;;;;;13.35;2.75;;;15.20;99.90;;;;;;6279691;22;20111;-62
2023/08/07 05:40:02;;;;;;;8.88;2.25;;;15.20;99.90;;;;;;6252027;22;20055;-62
2023/08/07 05:42:28;;;;;;;8.13;2.33;;;15.20;99.90;;;;;;6280443;22;20039;-62
2023/08/07 05:44:53;;;;;;;9.75;2.55;;;15.20;99.90;;;;;;6278935;22;20024;-62
2023/08/07 05:47:19;;;;;;;9.73;2.30;;;15.10;99.90;;;;;;6280720;22;20024;-62
2023/08/07 05:49:45;;;;;;;8.18;2.47;;;15.20;99.90;;;;;;6278474;22;20524;-62
2023/08/07 05:52:10;;;;;;;3.97;2.03;;;15.10;99.90;;;;;;6280340;22;20087;-62
2023/08/07 05:54:37;;;;;;;7.03;2.28;;;15.20;99.90;;;;;;6279540;22;20028;-62
2023/08/07 05:57:02;;;;;;;6.90;2.70;;;15.10;99.90;;;;;;6251938;22;20023;-62
2023/08/07 05:59:28;;;;;;;5.60;1.95;;;15.10;99.90;;;;;;6280054;22;20075;-63
2023/08/07 06:01:54;;;;;;;7.75;2.03;;;15.20;99.90;;;;;;6251961;22;20027;-62
2023/08/07 06:04:21;;;;;;;8.48;2.45;;;15.20;99.90;;;;;;6280329;22;20109;-62
2023/08/07 06:06:47;;;;;;;8.40;2.22;;;15.10;99.90;;;;;;6278228;22;20065;-62
2023/08/07 06:09:15;;;;;;;9.75;2.33;;;15.10;99.90;;;;;;6280229;22;20028;-62
2023/08/07 06:11:41;;;;;;;7.47;2.47;;;15.10;99.90;;;;;;6279202;22;20412;-63
2023/08/07 06:14:07;;;;;;;7.68;2.30;;;15.10;99.90;;;;;;6279406;22;20062;-62
2023/08/07 06:16:33;;;;;;;7.25;2.40;;;15.10;99.90;;;;;;6278535;22;20031;-62
2023/08/07 06:18:59;;;;;;;13.10;2.65;;;15.10;99.90;;;;;;6250607;22;20031;-63
2023/08/07 06:21:25;;;;;;;8.65;2.22;;;15.20;99.90;;;;;;6279638;22;20474;-63
2023/08/07 06:23:52;;;;;;;12.15;2.85;;;15.30;99.90;;;;;;6277854;22;20027;-62
2023/08/07 06:26:18;;;;;;;6.32;2.40;;;15.30;99.90;;;;;;6279660;22;20023;-63
2023/08/07 06:28:44;;;;;;;10.38;2.65;;;15.30;99.90;;;;;;6251365;22;20031;-62
2023/08/07 06:31:11;;;;;;;11.57;2.78;;;15.40;99.90;;;;;;6277258;22;20103;-61
2023/08/07 06:33:37;;;;;;;15.90;4.88;;;15.50;99.90;;;;;;6279757;22;20209;-61
2023/08/07 06:36:04;;;;;;;11.35;3.13;;;15.70;99.90;;;;;;6277590;22;20027;-61
2023/08/07 06:38:30;;;;;;;12.45;2.83;;;15.80;99.90;;;;;;6280312;22;20034;-62
2023/08/07 06:40:56;;;;;;;13.32;3.00;;;15.90;99.90;;;;;;6278665;22;20026;-61
2023/08/07 06:43:22;;;;;;;10.48;3.17;;;15.90;99.90;;;;;;6280626;22;20454;-61
2023/08/07 06:45:52;;;;;;;16.58;3.70;;;15.90;99.90;;;;;;6278531;22;20026;-62
2023/08/07 06:48:18;;;;;;;5.43;2.83;;;15.80;99.90;;;;;;6278803;22;20030;-62
2023/08/07 06:50:44;;;;;;;16.77;3.17;;;15.80;99.90;;;;;;6251969;22;20024;-62
2023/08/07 06:53:10;;;;;;;8.95;2.38;;;15.80;99.90;;;;;;6278483;22;20031;-62
2023/08/07 06:55:35;;;;;;;8.68;2.13;;;15.70;99.90;;;;;;6227404;22;20084;-62
2023/08/07 06:58:01;;;;;;;4.25;1.80;;;15.60;99.90;;;;;;6278461;22;20020;-62
2023/08/07 07:00:27;;;;;;;5.97;1.70;;;15.40;99.90;;;;;;6280224;22;20395;-61
2023/08/07 07:02:53;;;;;;;6.80;1.67;;;15.40;99.90;;;;;;6277981;22;20094;-62
2023/08/07 07:05:18;;;;;;;4.72;1.80;;;15.50;99.90;;;;;;6255359;22;20090;-62
2023/08/07 07:07:44;;;;;;;5.22;1.85;;;15.50;99.90;;;;;;6285684;22;20023;-63
2023/08/07 07:10:10;;;;;;;4.88;1.90;;;15.50;99.90;;;;;;6285048;22;20484;-62
2023/08/07 07:12:36;;;;;;;7.28;1.90;;;15.50;99.90;;;;;;6291742;22;20171;-62
2023/08/07 07:15:02;;;;;;;8.88;2.17;;;15.60;99.90;;;;;;6280932;22;20011;-62
2023/08/07 07:17:28;;;;;;;9.75;1.95;;;15.60;99.90;;;;;;6281879;22;20029;-62
2023/08/07 07:19:55;;;;;;;9.38;2.20;;;15.60;99.90;;;;;;6252904;22;20539;-62
2023/08/07 07:22:20;;;;;;;12.63;2.70;;;15.70;99.90;;;;;;6281311;22;20024;-63
2023/08/07 07:24:46;;;;;;;7.88;2.40;;;15.80;99.90;;;;;;6280881;22;20062;-61
2023/08/07 07:27:12;;;;;;;9.98;3.00;;;15.80;99.90;;;;;;6280455;22;20520;-63
2023/08/07 07:29:38;;;;;;;7.72;2.22;;;15.80;99.90;;;;;;6281661;22;20061;-63
2023/08/07 07:32:04;;;;;;;11.90;3.17;;;15.90;99.90;;;;;;6280119;22;20442;-62
2023/08/07 07:34:29;;;;;;;14.02;2.88;;;16.00;99.90;;;;;;6254380;22;20432;-62
2023/08/07 07:36:55;;;;;;;8.00;2.63;;;16.00;99.90;;;;;;6279995;22;20039;-62
2023/08/07 07:39:21;;;;;;;9.55;2.80;;;16.10;99.90;;;;;;6281845;22;20036;-62
2023/08/07 07:41:47;;;;;;;10.02;3.03;;;16.20;99.90;;;;;;6281321;22;20020;-62
2023/08/07 07:44:15;;;;;;;8.70;2.47;;;16.20;99.90;;;;;;6282216;22;20057;-62
2023/08/07 07:46:44;;;;;;;14.93;2.80;;;16.20;99.90;;;;;;6283588;22;20030;-62
2023/08/07 07:49:12;;;;;;;8.50;2.60;;;16.40;99.90;;;;;;6281513;22;20024;-63
2023/08/07 07:51:40;;;;;;;10.38;2.70;;;16.30;99.90;;;;;;6255002;22;20023;-63
2023/08/07 07:54:06;;;;;;;9.10;1.92;;;16.30;99.90;;;;;;6251489;22;20349;-63
2023/08/07 07:56:32;;;;;;;7.63;2.42;;;16.30;99.90;;;;;;6281140;22;20425;-62
2023/08/07 07:58:58;;;;;;;4.53;1.80;;;16.30;99.90;;;;;;6280475;22;20032;-63
2023/08/07 08:01:23;;;;;;;10.65;1.98;;;16.40;99.90;;;;;;6279880;22;20047;-61
2023/08/07 08:03:49;;;;;;;8.25;2.05;;;16.50;99.90;;;;;;6281365;22;20611;-61
2023/08/07 08:06:15;;;;;;;9.98;1.80;;;16.50;99.90;;;;;;6279326;22;20023;-61
2023/08/07 08:08:42;;;;;;;3.33;1.45;;;16.60;99.90;;;;;;6281366;22;20056;-61
2023/08/07 08:11:08;;;;;;;3.17;1.60;;;16.50;99.90;;;;;;6279484;22;20053;-61
2023/08/07 08:13:35;;;;;;;2.72;1.08;;;16.40;99.90;;;;;;6279867;22;20051;-61
2023/08/07 08:16:01;;;;;;;5.03;1.15;;;16.20;99.90;;;;;;6279941;22;20064;-61
2023/08/07 08:18:27;;;;;;;3.65;1.23;;;16.00;99.90;;;;;;6279745;22;20024;-61
2023/08/07 08:20:54;;;;;;;3.38;1.30;;;16.00;99.90;;;;;;6280561;22;20027;-60
2023/08/07 08:23:19;;;;;;;5.57;1.58;;;16.00;99.90;;;;;;6279186;22;20069;-61
2023/08/07 08:25:45;;;;;;;2.80;1.35;;;16.00;99.90;;;;;;6280777;22;20548;-61
2023/08/07 08:28:11;;;;;;;5.07;1.50;;;16.10;99.90;;;;;;6277989;22;20046;-61
2023/08/07 08:30:37;;;;;;;5.65;1.60;;;16.10;99.90;;;;;;6281100;22;20020;-61
2023/08/07 08:33:03;;;;;;;4.47;1.27;;;16.10;99.90;;;;;;6279959;22;20046;-61
2023/08/07 08:35:28;;;;;;;5.18;1.92;;;16.20;99.90;;;;;;6280258;22;20062;-61
2023/08/07 08:37:54;;;;;;;4.73;1.70;;;16.30;99.90;;;;;;6280907;22;20024;-61
2023/08/07 08:40:20;;;;;;;6.00;1.65;;;16.30;99.90;;;;;;6279572;22;20307;-61
2023/08/07 08:42:46;;;;;;;9.60;1.80;;;16.40;99.90;;;;;;6281428;22;20020;-61
2023/08/07 08:45:15;;;;;;;6.78;1.48;;;16.50;99.90;;;;;;6279458;22;20022;-61
2023/08/07 08:47:43;;;;;;;10.45;1.80;;;16.60;99.90;;;;;;6281162;22;20024;-61
2023/08/07 08:50:12;;;;;;;6.80;2.20;;;16.70;99.90;;;;;;6279889;22;20024;-61
2023/08/07 08:52:41;;;;;;;4.90;1.80;;;16.70;99.90;;;;;;6279786;22;20362;-61
2023/08/07 08:55:08;;;;;;;10.73;2.38;;;16.70;99.90;;;;;;6280570;22;20476;-60
2023/08/07 08:57:35;;;;;;;7.88;2.40;;;16.50;99.90;;;;;;6279169;22;20028;-60
2023/08/07 09:00:06;;;;;;;5.72;2.00;;;16.30;99.90;;;;;;6280186;22;20019;-60
2023/08/07 09:02:33;;;;;;;5.10;1.90;;;16.20;99.90;;;;;;6278856;22;20043;-61
2023/08/07 09:04:59;;;;;;;6.25;1.90;;;16.20;99.90;;;;;;6279915;22;20024;-60
2023/08/07 09:07:26;;;;;;;6.43;2.40;;;16.20;99.90;;;;;;6279643;22;20090;-61
2023/08/07 09:09:53;;;;;;;16.50;2.45;;;16.20;99.90;;;;;;6279663;22;20024;-61
2023/08/07 09:12:26;;;;;;;4.30;2.10;;;16.30;99.90;;;;;;6280167;22;20338;-61
2023/08/07 09:14:56;;;;;;;7.20;2.30;;;16.40;99.90;;;;;;6278337;22;20059;-61
2023/08/07 09:17:31;;;;;;;8.73;2.65;;;16.40;99.90;;;;;;6280914;22;20086;-61
2023/08/07 09:19:57;;;;;;;6.68;2.40;;;16.50;99.90;;;;;;6279183;22;20027;-62
2023/08/07 09:22:23;;;;;;;11.52;2.88;;;16.50;99.90;;;;;;6280526;22;20125;-61
2023/08/07 09:24:50;;;;;;;11.20;2.45;;;16.60;99.90;;;;;;6279725;22;20028;-61
2023/08/07 09:27:16;;;;;;;9.77;2.40;;;16.60;99.90;;;;;;6278825;22;20024;-61
2023/08/07 09:29:46;;;;;;;14.77;2.60;;;16.60;99.90;;;;;;6276152;22;20024;-61
2023/08/07 09:32:15;;;;;;;10.75;2.60;;;16.60;99.90;;;;;;6250834;22;20078;-61
2023/08/07 09:34:44;;;;;;;9.15;2.55;;;16.70;99.90;;;;;;6279437;22;20026;-61
2023/08/07 09:37:10;;;;;;;9.00;2.83;;;16.70;99.90;;;;;;6276278;22;20016;-61
2023/08/07 09:39:37;;;;;;;7.55;2.72;;;16.80;99.90;;;;;;6279214;22;20092;-64
2023/08/07 09:42:03;;;;;;;8.13;2.60;;;16.80;99.90;;;;;;6278217;22;20032;-61
2023/08/07 09:44:36;;;;;;;10.60;2.78;;;16.90;99.90;;;;;;6277736;22;20024;-61
2023/08/07 09:47:13;;;;;;;8.90;3.05;;;16.90;99.90;;;;;;6280164;22;20528;-61
2023/08/07 09:49:39;;;;;;;9.93;2.40;;;16.80;99.90;;;;;;6278272;22;20059;-61
2023/08/07 09:52:09;;;;;;;7.13;2.35;;;17.00;99.90;;;;;;6280114;22;20026;-61
2023/08/07 09:54:36;;;;;;;8.88;2.80;;;17.00;99.90;;;;;;6288951;22;20054;-61
2023/08/07 09:57:07;;;;;;;13.40;2.60;;;17.00;99.90;;;;;;6289015;22;20030;-61
2023/08/07 09:59:34;;;;;;;8.50;2.08;;;17.10;99.90;;;;;;6261686;22;20036;-61
2023/08/07 10:02:04;;;;;;;7.93;2.40;;;17.10;99.90;;;;;;6285651;22;20539;-61
2023/08/07 10:04:31;;;;;;;5.70;1.67;;;17.10;99.90;;;;;;6228929;22;20024;-61
2023/08/07 10:06:58;;;;;;;7.50;2.10;;;17.10;99.90;;;;;;6277247;22;20019;-61
2023/08/07 10:09:26;;;;;;;5.85;1.90;;;17.00;99.90;;;;;;6279401;22;20022;-61
2023/08/07 10:11:52;;;;;;;5.68;2.10;;;16.90;99.90;;;;;;6252116;22;20034;-61
2023/08/07 10:14:18;;;;;;;8.55;2.78;;;17.00;99.90;;;;;;6278850;22;20043;-68
2023/08/07 10:16:45;;;;;;;5.38;2.10;;;17.00;99.90;;;;;;6280070;22;20463;-62
2023/08/07 10:19:11;;;;;;;6.70;2.67;;;17.10;99.90;;;;;;6278055;22;20051;-62
2023/08/07 10:21:39;;;;;;;10.15;2.15;;;17.20;99.90;;;;;;6279851;22;20023;-62
2023/08/07 10:24:06;;;;;;;4.57;2.03;;;17.20;99.90;;;;;;6250930;22;20051;-61
2023/08/07 10:26:37;;;;;;;9.00;1.92;;;17.10;99.90;;;;;;6278866;22;20020;-63
2023/08/07 10:29:06;;;;;;;7.07;1.83;;;17.00;99.90;;;;;;6279294;22;20028;-62
2023/08/07 10:31:34;;;;;;;5.70;2.58;;;17.00;99.90;;;;;;6278188;22;20047;-61
2023/08/07 10:34:02;;;;;;;11.32;2.30;;;17.00;99.90;;;;;;6279695;22;20092;-62
2023/08/07 10:36:35;;;;;;;7.32;2.45;;;17.00;99.90;;;;;;6277622;22;20023;-59
2023/08/07 10:39:08;;;;;;;10.10;2.40;;;16.90;99.90;;;;;;6279751;22;20103;-60
2023/08/07 10:41:41;;;;;;;5.85;2.17;;;17.00;99.90;;;;;;6278520;22;20055;-60
2023/08/07 10:44:20;;;;;;;10.70;2.20;;;17.20;99.90;;;;;;6278794;22;20030;-60
2023/08/07 10:47:00;;;;;;;6.40;2.22;;;17.30;99.90;;;;;;6278543;22;20027;-60
2023/08/07 10:49:33;;;;;;;8.10;2.60;;;17.30;99.90;;;;;;6225301;22;20023;-60
2023/08/07 10:52:09;;;;;;;6.18;1.80;;;17.30;99.90;;;;;;6279435;22;20107;-60
2023/08/07 10:54:43;;;;;;;6.57;2.00;;;17.30;99.90;;;;;;6278264;22;20024;-60
2023/08/07 10:57:16;;;;;;;8.13;2.30;;;17.30;99.90;;;;;;6250782;22;20057;-60
2023/08/07 11:00:05;;;;;;;5.25;1.85;;;17.30;99.90;;;;;;6279172;22;20023;-60
2023/08/07 11:02:33;;;;;;;5.93;2.30;;;17.30;99.90;;;;;;6232029;22;20099;-60
2023/08/07 11:04:59;;;;;;;4.15;2.25;;;17.40;99.90;;;;;;6279963;22;20034;-60
2023/08/07 11:07:27;;;;;;;11.10;2.45;;;17.40;99.90;;;;;;6251781;22;20099;-60
2023/08/07 11:09:53;;;;;;;8.57;2.17;;;17.50;99.90;;;;;;6278292;22;20081;-60
2023/08/07 11:12:20;;;;;;;6.95;2.25;;;17.70;99.90;;;;;;6251990;22;20470;-60
2023/08/07 11:14:46;;;;;;;7.25;2.20;;;17.80;99.90;;;;;;6278181;22;20047;-63
2023/08/07 11:17:12;;;;;;;5.72;2.25;;;17.80;99.90;;;;;;6252942;22;20030;-60
2023/08/07 11:19:39;;;;;;;9.73;2.50;;;17.70;99.90;;;;;;6278434;22;20509;-66
2023/08/07 11:22:05;;;;;;;7.40;2.15;;;17.70;99.90;;;;;;6280056;22;20019;-61
2023/08/07 11:24:31;;;;;;;10.40;1.80;;;17.70;99.90;;;;;;6278331;22;20431;-61
2023/08/07 11:26:57;;;;;;;8.20;2.15;;;17.70;99.90;;;;;;6251225;22;20484;-60
2023/08/07 11:29:24;;;;;;;13.45;2.80;;;17.60;99.90;;;;;;6251953;22;20038;-61
2023/08/07 11:31:56;;;;;;;7.35;2.30;;;17.70;99.90;;;;;;6276299;22;20037;-61
2023/08/07 11:34:22;;;;;;;9.15;2.33;;;17.70;99.90;;;;;;6279836;22;20191;-60
2023/08/07 11:36:48;;;;;;;7.25;2.35;;;17.60;99.90;;;;;;6253497;22;20104;-61
2023/08/07 11:39:14;;;;;;;8.95;1.90;;;17.80;99.90;;;;;;6289138;22;20027;-61
2023/08/07 11:41:44;;;;;;;6.85;2.33;;;17.90;99.90;;;;;;6259670;22;20062;-61
2023/08/07 11:44:09;;;;;;;9.75;2.58;;;17.90;99.90;;;;;;6279198;22;20067;-62
2023/08/07 11:46:36;;;;;;;3.80;1.70;;;18.00;99.90;;;;;;6227437;22;20030;-61
2023/08/07 11:49:03;;;;;;;7.22;1.60;;;18.00;99.90;;;;;;6278600;22;20099;-61
2023/08/07 11:51:30;;;;;;;5.95;2.05;;;18.00;99.90;;;;;;6252936;22;20023;-61
2023/08/07 11:53:58;;;;;;;4.68;2.03;;;18.10;99.90;;;;;;6250721;22;20039;-61
2023/08/07 11:56:24;;;;;;;3.50;1.40;;;18.30;99.90;;;;;;6279948;22;20050;-61
2023/08/07 11:58:51;;;;;;;3.35;1.65;;;18.30;99.90;;;;;;6281030;22;20079;-61
2023/08/07 12:01:20;;;;;;;5.05;1.60;;;18.30;99.90;;;;;;6253366;22;20019;-61
2023/08/07 12:04:09;;;;;;;6.43;1.88;;;18.30;99.90;;;;;;6281696;22;20020;-62
2023/08/07 12:06:36;;;;;;;4.57;1.30;;;18.20;99.90;;;;;;6279693;22;20072;-61
2023/08/07 12:09:11;;;;;;;6.00;1.88;;;18.30;99.90;;;;;;6229337;22;20099;-60
2023/08/07 12:11:39;;;;;;;5.47;1.85;;;18.30;99.90;;;;;;6281108;22;20023;-61
2023/08/07 12:14:05;;;;;;;4.13;1.60;;;18.40;99.90;;;;;;6280814;22;20015;-61
2023/08/07 12:16:35;;;;;;;4.85;1.45;;;18.30;99.90;;;;;;6279556;22;20111;-61
2023/08/07 12:19:02;;;;;;;5.03;1.58;;;18.30;99.90;;;;;;6279880;22;20024;-61
2023/08/07 12:21:28;;;;;;;4.00;1.88;;;18.30;99.90;;;;;;6253865;22;20020;-61
2023/08/07 12:23:57;;;;;;;4.90;1.80;;;18.40;99.90;;;;;;6252824;22;20058;-60
2023/08/07 12:26:23;;;;;;;10.18;2.00;;;18.40;99.90;;;;;;6281385;22;20322;-62
2023/08/07 12:28:49;;;;;;;5.63;1.90;;;18.40;99.90;;;;;;6280704;22;20482;-62
2023/08/07 12:31:17;;;;;;;4.65;1.73;;;18.50;99.90;;;;;;6280293;22;20318;-61
2023/08/07 12:33:43;;;;;;;2.72;1.67;;;18.50;99.90;;;;;;6281506;22;20675;-61
2023/08/07 12:36:10;;;;;;;7.95;1.92;;;18.60;99.90;;;;;;6279757;22;20075;-61
2023/08/07 12:38:36;;;;;;;5.15;1.92;;;18.60;99.90;;;;;;6296698;22;20031;-61
2023/08/07 12:41:03;;;;;;;3.53;1.67;;;18.60;99.90;;;;;;6290344;22;20690;-61
2023/08/07 12:43:29;;;;;;;8.23;1.90;;;18.60;99.90;;;;;;6283283;22;20024;-61
2023/08/07 12:45:55;;;;;;;6.60;2.08;;;18.60;99.90;;;;;;6253452;22;20027;-61